sensor_id;sensor_type;location;lat;lon;timestamp;P1;durP1;ratioP1;P2;durP2;ratioP2
39600;SDS011;25297;44.758;11.310;2023-11-19T00:00:28;14.15;;;8.45;;
39600;SDS011;25297;44.758;11.310;2023-11-19T00:02:54;13.63;;;8.50;;
39600;SDS011;25297;44.758;11.310;2023-11-19T00:05:20;18.33;;;9.13;;
39600;SDS011;25297;44.758;11.310;2023-11-19T00:07:45;14.95;;;8.23;;
39600;SDS011;25297;44.758;11.310;2023-11-19T00:10:12;14.23;;;8.73;;
39600;SDS011;25297;44.758;11.310;2023-11-19T00:12:42;13.98;;;8.70;;
39600;SDS011;25297;44.758;11.310;2023-11-19T00:15:12;14.20;;;8.55;;
39600;SDS011;25297;44.758;11.310;2023-11-19T00:17:42;15.20;;;8.18;;
39600;SDS011;25297;44.758;11.310;2023-11-19T00:20:13;17.25;;;9.88;;
39600;SDS011;25297;44.758;11.310;2023-11-19T00:22:39;15.10;;;8.45;;
39600;SDS011;25297;44.758;11.310;2023-11-19T00:25:05;18.92;;;8.65;;
39600;SDS011;25297;44.758;11.310;2023-11-19T00:27:31;14.05;;;7.78;;
39600;SDS011;25297;44.758;11.310;2023-11-19T00:29:57;18.35;;;9.30;;
39600;SDS011;25297;44.758;11.310;2023-11-19T00:32:23;16.00;;;9.18;;
39600;SDS011;25297;44.758;11.310;2023-11-19T00:34:48;13.55;;;8.65;;
39600;SDS011;25297;44.758;11.310;2023-11-19T00:37:14;14.85;;;8.98;;
39600;SDS011;25297;44.758;11.310;2023-11-19T00:39:40;19.48;;;8.57;;
39600;SDS011;25297;44.758;11.310;2023-11-19T00:42:10;15.38;;;8.88;;
39600;SDS011;25297;44.758;11.310;2023-11-19T00:44:36;16.58;;;9.77;;
39600;SDS011;25297;44.758;11.310;2023-11-19T00:47:02;15.45;;;8.60;;
39600;SDS011;25297;44.758;11.310;2023-11-19T00:49:28;15.82;;;8.90;;
39600;SDS011;25297;44.758;11.310;2023-11-19T00:51:53;14.20;;;8.68;;
39600;SDS011;25297;44.758;11.310;2023-11-19T00:54:19;14.93;;;8.68;;
39600;SDS011;25297;44.758;11.310;2023-11-19T00:56:45;13.32;;;8.20;;
39600;SDS011;25297;44.758;11.310;2023-11-19T00:59:10;14.40;;;8.85;;
39600;SDS011;25297;44.758;11.310;2023-11-19T01:01:36;14.52;;;9.73;;
39600;SDS011;25297;44.758;11.310;2023-11-19T01:04:02;15.38;;;8.55;;
39600;SDS011;25297;44.758;11.310;2023-11-19T01:06:28;14.98;;;9.05;;
39600;SDS011;25297;44.758;11.310;2023-11-19T01:08:55;14.57;;;8.90;;
39600;SDS011;25297;44.758;11.310;2023-11-19T01:11:22;16.15;;;9.82;;
39600;SDS011;25297;44.758;11.310;2023-11-19T01:13:48;11.70;;;8.25;;
39600;SDS011;25297;44.758;11.310;2023-11-19T01:16:14;14.27;;;9.07;;
39600;SDS011;25297;44.758;11.310;2023-11-19T01:18:40;14.63;;;9.68;;
39600;SDS011;25297;44.758;11.310;2023-11-19T01:21:05;15.88;;;9.88;;
39600;SDS011;25297;44.758;11.310;2023-11-19T01:23:31;15.52;;;9.38;;
39600;SDS011;25297;44.758;11.310;2023-11-19T01:25:57;16.45;;;9.38;;
39600;SDS011;25297;44.758;11.310;2023-11-19T01:28:23;15.35;;;9.10;;
39600;SDS011;25297;44.758;11.310;2023-11-19T01:30:52;19.33;;;9.75;;
39600;SDS011;25297;44.758;11.310;2023-11-19T01:33:18;15.77;;;9.35;;
39600;SDS011;25297;44.758;11.310;2023-11-19T01:35:43;13.18;;;7.75;;
39600;SDS011;25297;44.758;11.310;2023-11-19T01:38:09;12.70;;;7.95;;
39600;SDS011;25297;44.758;11.310;2023-11-19T01:40:35;13.60;;;9.27;;
39600;SDS011;25297;44.758;11.310;2023-11-19T01:43:02;13.45;;;8.60;;
39600;SDS011;25297;44.758;11.310;2023-11-19T01:45:29;14.38;;;9.80;;
39600;SDS011;25297;44.758;11.310;2023-11-19T01:47:56;16.20;;;8.63;;
39600;SDS011;25297;44.758;11.310;2023-11-19T01:50:23;13.52;;;8.35;;
39600;SDS011;25297;44.758;11.310;2023-11-19T01:52:53;14.70;;;8.68;;
39600;SDS011;25297;44.758;11.310;2023-11-19T01:55:22;12.57;;;8.52;;
39600;SDS011;25297;44.758;11.310;2023-11-19T01:57:50;15.40;;;9.00;;
39600;SDS011;25297;44.758;11.310;2023-11-19T02:00:19;12.02;;;8.57;;
39600;SDS011;25297;44.758;11.310;2023-11-19T02:02:46;13.55;;;8.80;;
39600;SDS011;25297;44.758;11.310;2023-11-19T02:05:13;13.10;;;8.40;;
39600;SDS011;25297;44.758;11.310;2023-11-19T02:07:39;16.77;;;9.05;;
39600;SDS011;25297;44.758;11.310;2023-11-19T02:10:05;13.82;;;8.82;;
39600;SDS011;25297;44.758;11.310;2023-11-19T02:12:38;16.08;;;8.85;;
39600;SDS011;25297;44.758;11.310;2023-11-19T02:15:08;14.80;;;8.73;;
39600;SDS011;25297;44.758;11.310;2023-11-19T02:17:34;17.20;;;9.25;;
39600;SDS011;25297;44.758;11.310;2023-11-19T02:20:02;14.50;;;8.85;;
39600;SDS011;25297;44.758;11.310;2023-11-19T02:22:31;12.30;;;9.75;;
39600;SDS011;25297;44.758;11.310;2023-11-19T02:24:59;13.65;;;8.93;;
39600;SDS011;25297;44.758;11.310;2023-11-19T02:30:20;14.73;;;9.00;;
39600;SDS011;25297;44.758;11.310;2023-11-19T02:32:51;13.00;;;9.57;;
39600;SDS011;25297;44.758;11.310;2023-11-19T02:35:22;15.88;;;9.27;;
39600;SDS011;25297;44.758;11.310;2023-11-19T02:37:48;16.85;;;8.65;;
39600;SDS011;25297;44.758;11.310;2023-11-19T02:40:14;17.60;;;9.75;;
39600;SDS011;25297;44.758;11.310;2023-11-19T02:42:40;13.85;;;8.32;;
39600;SDS011;25297;44.758;11.310;2023-11-19T02:45:06;12.02;;;8.23;;
39600;SDS011;25297;44.758;11.310;2023-11-19T02:47:33;13.82;;;8.45;;
39600;SDS011;25297;44.758;11.310;2023-11-19T02:49:59;20.08;;;9.63;;
39600;SDS011;25297;44.758;11.310;2023-11-19T02:52:25;14.02;;;9.98;;
39600;SDS011;25297;44.758;11.310;2023-11-19T02:54:51;14.75;;;8.73;;
39600;SDS011;25297;44.758;11.310;2023-11-19T02:57:17;17.48;;;9.90;;
39600;SDS011;25297;44.758;11.310;2023-11-19T02:59:46;16.30;;;10.15;;
39600;SDS011;25297;44.758;11.310;2023-11-19T03:02:11;14.25;;;9.45;;
39600;SDS011;25297;44.758;11.310;2023-11-19T03:04:37;15.52;;;10.48;;
39600;SDS011;25297;44.758;11.310;2023-11-19T03:07:04;17.33;;;9.13;;
39600;SDS011;25297;44.758;11.310;2023-11-19T03:09:31;16.73;;;10.07;;
39600;SDS011;25297;44.758;11.310;2023-11-19T03:11:56;13.15;;;9.00;;
39600;SDS011;25297;44.758;11.310;2023-11-19T03:14:22;13.57;;;9.07;;
39600;SDS011;25297;44.758;11.310;2023-11-19T03:16:48;14.10;;;8.93;;
39600;SDS011;25297;44.758;11.310;2023-11-19T03:19:13;13.20;;;7.88;;
39600;SDS011;25297;44.758;11.310;2023-11-19T03:21:40;14.38;;;8.75;;
39600;SDS011;25297;44.758;11.310;2023-11-19T03:24:05;12.35;;;8.60;;
39600;SDS011;25297;44.758;11.310;2023-11-19T03:26:33;13.13;;;8.20;;
39600;SDS011;25297;44.758;11.310;2023-11-19T03:28:59;14.73;;;8.40;;
39600;SDS011;25297;44.758;11.310;2023-11-19T03:31:25;15.50;;;8.30;;
39600;SDS011;25297;44.758;11.310;2023-11-19T03:33:51;15.75;;;8.60;;
39600;SDS011;25297;44.758;11.310;2023-11-19T03:36:16;14.63;;;9.23;;
39600;SDS011;25297;44.758;11.310;2023-11-19T03:38:42;14.48;;;8.25;;
39600;SDS011;25297;44.758;11.310;2023-11-19T03:41:14;13.35;;;8.55;;
39600;SDS011;25297;44.758;11.310;2023-11-19T03:43:41;13.82;;;8.18;;
39600;SDS011;25297;44.758;11.310;2023-11-19T03:46:19;10.63;;;7.53;;
39600;SDS011;25297;44.758;11.310;2023-11-19T03:48:49;14.52;;;9.35;;
39600;SDS011;25297;44.758;11.310;2023-11-19T03:51:15;13.55;;;8.60;;
39600;SDS011;25297;44.758;11.310;2023-11-19T03:53:42;13.20;;;8.07;;
39600;SDS011;25297;44.758;11.310;2023-11-19T03:56:09;12.23;;;8.25;;
39600;SDS011;25297;44.758;11.310;2023-11-19T03:58:36;15.50;;;8.73;;
39600;SDS011;25297;44.758;11.310;2023-11-19T04:01:03;11.85;;;8.20;;
39600;SDS011;25297;44.758;11.310;2023-11-19T04:03:29;14.27;;;8.95;;
39600;SDS011;25297;44.758;11.310;2023-11-19T04:05:55;13.68;;;8.65;;
39600;SDS011;25297;44.758;11.310;2023-11-19T04:08:21;14.18;;;8.30;;
39600;SDS011;25297;44.758;11.310;2023-11-19T04:10:47;11.23;;;8.35;;
39600;SDS011;25297;44.758;11.310;2023-11-19T04:13:13;12.15;;;8.52;;
39600;SDS011;25297;44.758;11.310;2023-11-19T04:15:39;15.23;;;9.13;;
39600;SDS011;25297;44.758;11.310;2023-11-19T04:18:04;17.27;;;8.95;;
39600;SDS011;25297;44.758;11.310;2023-11-19T04:20:30;14.27;;;9.63;;
39600;SDS011;25297;44.758;11.310;2023-11-19T04:22:56;15.55;;;10.05;;
39600;SDS011;25297;44.758;11.310;2023-11-19T04:25:22;15.82;;;8.98;;
39600;SDS011;25297;44.758;11.310;2023-11-19T04:27:51;17.10;;;9.02;;
39600;SDS011;25297;44.758;11.310;2023-11-19T04:30:17;17.02;;;9.45;;
39600;SDS011;25297;44.758;11.310;2023-11-19T04:32:43;16.23;;;9.48;;
39600;SDS011;25297;44.758;11.310;2023-11-19T04:35:09;18.30;;;9.77;;
39600;SDS011;25297;44.758;11.310;2023-11-19T04:37:34;15.52;;;9.23;;
39600;SDS011;25297;44.758;11.310;2023-11-19T04:40:00;18.10;;;9.82;;
39600;SDS011;25297;44.758;11.310;2023-11-19T04:42:26;14.70;;;9.02;;
39600;SDS011;25297;44.758;11.310;2023-11-19T04:44:52;16.42;;;9.93;;
39600;SDS011;25297;44.758;11.310;2023-11-19T04:47:18;15.98;;;9.00;;
39600;SDS011;25297;44.758;11.310;2023-11-19T04:49:43;14.98;;;9.85;;
39600;SDS011;25297;44.758;11.310;2023-11-19T04:52:09;13.05;;;8.55;;
39600;SDS011;25297;44.758;11.310;2023-11-19T04:54:34;15.05;;;8.65;;
39600;SDS011;25297;44.758;11.310;2023-11-19T04:57:00;14.55;;;9.25;;
39600;SDS011;25297;44.758;11.310;2023-11-19T04:59:26;14.40;;;9.18;;
39600;SDS011;25297;44.758;11.310;2023-11-19T05:01:52;19.55;;;10.07;;
39600;SDS011;25297;44.758;11.310;2023-11-19T05:04:18;15.00;;;8.77;;
39600;SDS011;25297;44.758;11.310;2023-11-19T05:06:44;13.13;;;8.80;;
39600;SDS011;25297;44.758;11.310;2023-11-19T05:09:09;11.40;;;8.52;;
39600;SDS011;25297;44.758;11.310;2023-11-19T05:11:38;16.33;;;9.43;;
39600;SDS011;25297;44.758;11.310;2023-11-19T05:14:04;16.23;;;9.38;;
39600;SDS011;25297;44.758;11.310;2023-11-19T05:16:30;16.73;;;9.32;;
39600;SDS011;25297;44.758;11.310;2023-11-19T05:18:56;13.80;;;8.75;;
39600;SDS011;25297;44.758;11.310;2023-11-19T05:21:21;13.88;;;8.25;;
39600;SDS011;25297;44.758;11.310;2023-11-19T05:23:47;16.92;;;8.68;;
39600;SDS011;25297;44.758;11.310;2023-11-19T05:26:19;14.10;;;8.23;;
39600;SDS011;25297;44.758;11.310;2023-11-19T05:28:46;15.52;;;8.65;;
39600;SDS011;25297;44.758;11.310;2023-11-19T05:31:12;16.70;;;8.60;;
39600;SDS011;25297;44.758;11.310;2023-11-19T05:33:38;13.35;;;8.30;;
39600;SDS011;25297;44.758;11.310;2023-11-19T05:36:04;15.25;;;8.15;;
39600;SDS011;25297;44.758;11.310;2023-11-19T05:38:30;13.85;;;8.23;;
39600;SDS011;25297;44.758;11.310;2023-11-19T05:40:56;12.93;;;8.85;;
39600;SDS011;25297;44.758;11.310;2023-11-19T05:43:22;12.98;;;8.32;;
39600;SDS011;25297;44.758;11.310;2023-11-19T05:45:47;12.38;;;8.68;;
39600;SDS011;25297;44.758;11.310;2023-11-19T05:48:13;12.75;;;7.97;;
39600;SDS011;25297;44.758;11.310;2023-11-19T05:50:39;13.48;;;8.73;;
39600;SDS011;25297;44.758;11.310;2023-11-19T05:53:04;11.45;;;7.53;;
39600;SDS011;25297;44.758;11.310;2023-11-19T05:55:34;14.18;;;8.38;;
39600;SDS011;25297;44.758;11.310;2023-11-19T05:58:01;13.70;;;8.15;;
39600;SDS011;25297;44.758;11.310;2023-11-19T06:00:26;11.77;;;7.63;;
39600;SDS011;25297;44.758;11.310;2023-11-19T06:02:52;12.82;;;8.57;;
39600;SDS011;25297;44.758;11.310;2023-11-19T06:05:18;12.95;;;8.38;;
39600;SDS011;25297;44.758;11.310;2023-11-19T06:07:43;11.43;;;8.15;;
39600;SDS011;25297;44.758;11.310;2023-11-19T06:10:09;12.93;;;7.68;;
39600;SDS011;25297;44.758;11.310;2023-11-19T06:12:36;13.52;;;7.72;;
39600;SDS011;25297;44.758;11.310;2023-11-19T06:15:06;14.25;;;7.85;;
39600;SDS011;25297;44.758;11.310;2023-11-19T06:17:33;11.65;;;8.38;;
39600;SDS011;25297;44.758;11.310;2023-11-19T06:19:59;13.45;;;8.70;;
39600;SDS011;25297;44.758;11.310;2023-11-19T06:22:25;15.20;;;7.82;;
39600;SDS011;25297;44.758;11.310;2023-11-19T06:24:50;11.30;;;8.10;;
39600;SDS011;25297;44.758;11.310;2023-11-19T06:27:16;14.68;;;8.75;;
39600;SDS011;25297;44.758;11.310;2023-11-19T06:29:41;11.75;;;8.27;;
39600;SDS011;25297;44.758;11.310;2023-11-19T06:32:07;10.57;;;7.30;;
39600;SDS011;25297;44.758;11.310;2023-11-19T06:34:33;12.20;;;7.30;;
39600;SDS011;25297;44.758;11.310;2023-11-19T06:36:59;15.20;;;7.90;;
39600;SDS011;25297;44.758;11.310;2023-11-19T06:39:25;11.60;;;7.32;;
39600;SDS011;25297;44.758;11.310;2023-11-19T06:41:51;12.57;;;7.90;;
39600;SDS011;25297;44.758;11.310;2023-11-19T06:44:17;11.25;;;7.15;;
39600;SDS011;25297;44.758;11.310;2023-11-19T06:46:43;13.45;;;7.20;;
39600;SDS011;25297;44.758;11.310;2023-11-19T06:49:08;12.63;;;8.30;;
39600;SDS011;25297;44.758;11.310;2023-11-19T06:51:34;11.40;;;6.80;;
39600;SDS011;25297;44.758;11.310;2023-11-19T06:54:00;13.73;;;7.68;;
39600;SDS011;25297;44.758;11.310;2023-11-19T06:56:25;13.23;;;8.07;;
39600;SDS011;25297;44.758;11.310;2023-11-19T06:58:51;14.20;;;7.57;;
39600;SDS011;25297;44.758;11.310;2023-11-19T07:01:18;12.50;;;7.75;;
39600;SDS011;25297;44.758;11.310;2023-11-19T07:03:44;10.38;;;7.63;;
39600;SDS011;25297;44.758;11.310;2023-11-19T07:06:11;12.07;;;7.75;;
39600;SDS011;25297;44.758;11.310;2023-11-19T07:08:38;11.57;;;7.60;;
39600;SDS011;25297;44.758;11.310;2023-11-19T07:11:04;11.52;;;7.60;;
39600;SDS011;25297;44.758;11.310;2023-11-19T07:13:30;11.98;;;7.88;;
39600;SDS011;25297;44.758;11.310;2023-11-19T07:15:56;12.05;;;7.50;;
39600;SDS011;25297;44.758;11.310;2023-11-19T07:18:21;12.38;;;7.38;;
39600;SDS011;25297;44.758;11.310;2023-11-19T07:20:47;11.65;;;6.88;;
39600;SDS011;25297;44.758;11.310;2023-11-19T07:23:13;12.80;;;7.40;;
39600;SDS011;25297;44.758;11.310;2023-11-19T07:25:42;10.13;;;6.75;;
39600;SDS011;25297;44.758;11.310;2023-11-19T07:28:09;12.50;;;6.68;;
39600;SDS011;25297;44.758;11.310;2023-11-19T07:30:35;11.20;;;6.70;;
39600;SDS011;25297;44.758;11.310;2023-11-19T07:33:01;12.20;;;6.63;;
39600;SDS011;25297;44.758;11.310;2023-11-19T07:35:28;11.40;;;6.57;;
39600;SDS011;25297;44.758;11.310;2023-11-19T07:37:55;9.95;;;6.65;;
39600;SDS011;25297;44.758;11.310;2023-11-19T07:40:22;9.82;;;6.60;;
39600;SDS011;25297;44.758;11.310;2023-11-19T07:42:48;10.98;;;7.05;;
39600;SDS011;25297;44.758;11.310;2023-11-19T07:45:14;10.60;;;7.05;;
39600;SDS011;25297;44.758;11.310;2023-11-19T07:47:40;11.10;;;7.57;;
39600;SDS011;25297;44.758;11.310;2023-11-19T07:50:06;11.95;;;7.03;;
39600;SDS011;25297;44.758;11.310;2023-11-19T07:52:32;13.05;;;6.72;;
39600;SDS011;25297;44.758;11.310;2023-11-19T07:54:57;10.32;;;6.68;;
39600;SDS011;25297;44.758;11.310;2023-11-19T07:57:23;10.63;;;7.35;;
39600;SDS011;25297;44.758;11.310;2023-11-19T07:59:49;12.43;;;7.00;;
39600;SDS011;25297;44.758;11.310;2023-11-19T08:02:15;9.20;;;6.40;;
39600;SDS011;25297;44.758;11.310;2023-11-19T08:04:40;11.60;;;6.85;;
39600;SDS011;25297;44.758;11.310;2023-11-19T08:07:10;9.60;;;6.97;;
39600;SDS011;25297;44.758;11.310;2023-11-19T08:09:36;9.40;;;7.28;;
39600;SDS011;25297;44.758;11.310;2023-11-19T08:12:02;13.15;;;7.60;;
39600;SDS011;25297;44.758;11.310;2023-11-19T08:14:28;10.73;;;6.72;;
39600;SDS011;25297;44.758;11.310;2023-11-19T08:16:54;13.10;;;7.53;;
39600;SDS011;25297;44.758;11.310;2023-11-19T08:19:20;12.52;;;7.75;;
39600;SDS011;25297;44.758;11.310;2023-11-19T08:21:45;20.23;;;12.10;;
39600;SDS011;25297;44.758;11.310;2023-11-19T08:24:11;17.27;;;9.65;;
39600;SDS011;25297;44.758;11.310;2023-11-19T08:26:37;14.40;;;6.90;;
39600;SDS011;25297;44.758;11.310;2023-11-19T08:29:02;9.45;;;6.15;;
39600;SDS011;25297;44.758;11.310;2023-11-19T08:31:28;7.28;;;6.38;;
39600;SDS011;25297;44.758;11.310;2023-11-19T08:33:54;8.95;;;7.28;;
39600;SDS011;25297;44.758;11.310;2023-11-19T08:36:19;9.68;;;6.93;;
39600;SDS011;25297;44.758;11.310;2023-11-19T08:38:45;11.23;;;7.40;;
39600;SDS011;25297;44.758;11.310;2023-11-19T08:41:11;9.35;;;6.80;;
39600;SDS011;25297;44.758;11.310;2023-11-19T08:43:37;9.75;;;6.90;;
39600;SDS011;25297;44.758;11.310;2023-11-19T08:46:04;9.43;;;6.32;;
39600;SDS011;25297;44.758;11.310;2023-11-19T08:48:35;8.68;;;7.05;;
39600;SDS011;25297;44.758;11.310;2023-11-19T08:51:00;9.45;;;6.05;;
39600;SDS011;25297;44.758;11.310;2023-11-19T08:53:26;7.70;;;6.30;;
39600;SDS011;25297;44.758;11.310;2023-11-19T08:55:52;8.88;;;6.38;;
39600;SDS011;25297;44.758;11.310;2023-11-19T08:58:17;10.52;;;6.30;;
39600;SDS011;25297;44.758;11.310;2023-11-19T09:00:43;10.23;;;6.65;;
39600;SDS011;25297;44.758;11.310;2023-11-19T09:03:09;9.48;;;6.43;;
39600;SDS011;25297;44.758;11.310;2023-11-19T09:05:34;12.38;;;6.65;;
39600;SDS011;25297;44.758;11.310;2023-11-19T09:08:00;11.20;;;5.90;;
39600;SDS011;25297;44.758;11.310;2023-11-19T09:10:25;9.80;;;5.78;;
39600;SDS011;25297;44.758;11.310;2023-11-19T09:12:52;6.75;;;5.35;;
39600;SDS011;25297;44.758;11.310;2023-11-19T09:15:17;8.20;;;5.75;;
39600;SDS011;25297;44.758;11.310;2023-11-19T09:17:43;9.18;;;5.45;;
39600;SDS011;25297;44.758;11.310;2023-11-19T09:20:09;7.45;;;6.10;;
39600;SDS011;25297;44.758;11.310;2023-11-19T09:22:37;11.23;;;5.90;;
39600;SDS011;25297;44.758;11.310;2023-11-19T09:25:03;9.00;;;5.80;;
39600;SDS011;25297;44.758;11.310;2023-11-19T09:27:30;8.30;;;5.30;;
39600;SDS011;25297;44.758;11.310;2023-11-19T09:29:55;7.78;;;5.75;;
39600;SDS011;25297;44.758;11.310;2023-11-19T09:32:23;9.13;;;5.50;;
39600;SDS011;25297;44.758;11.310;2023-11-19T09:34:49;7.03;;;5.28;;
39600;SDS011;25297;44.758;11.310;2023-11-19T09:37:14;7.72;;;5.35;;
39600;SDS011;25297;44.758;11.310;2023-11-19T09:39:40;9.50;;;5.90;;
39600;SDS011;25297;44.758;11.310;2023-11-19T09:42:08;8.38;;;5.57;;
39600;SDS011;25297;44.758;11.310;2023-11-19T09:44:34;9.82;;;5.72;;
39600;SDS011;25297;44.758;11.310;2023-11-19T09:47:03;7.55;;;4.80;;
39600;SDS011;25297;44.758;11.310;2023-11-19T09:49:30;8.32;;;5.25;;
39600;SDS011;25297;44.758;11.310;2023-11-19T09:51:56;6.22;;;4.90;;
39600;SDS011;25297;44.758;11.310;2023-11-19T09:54:22;7.75;;;5.13;;
39600;SDS011;25297;44.758;11.310;2023-11-19T09:56:48;8.48;;;5.03;;
39600;SDS011;25297;44.758;11.310;2023-11-19T09:59:14;7.15;;;4.82;;
39600;SDS011;25297;44.758;11.310;2023-11-19T10:01:40;7.38;;;5.60;;
39600;SDS011;25297;44.758;11.310;2023-11-19T10:04:07;9.70;;;5.25;;
39600;SDS011;25297;44.758;11.310;2023-11-19T10:06:34;9.40;;;5.88;;
39600;SDS011;25297;44.758;11.310;2023-11-19T10:09:00;7.00;;;5.53;;
39600;SDS011;25297;44.758;11.310;2023-11-19T10:11:26;8.75;;;5.88;;
39600;SDS011;25297;44.758;11.310;2023-11-19T10:13:53;8.55;;;5.88;;
39600;SDS011;25297;44.758;11.310;2023-11-19T10:16:19;7.93;;;5.55;;
39600;SDS011;25297;44.758;11.310;2023-11-19T10:18:45;9.73;;;5.95;;
39600;SDS011;25297;44.758;11.310;2023-11-19T10:21:12;10.77;;;6.07;;
39600;SDS011;25297;44.758;11.310;2023-11-19T10:23:52;9.03;;;6.60;;
39600;SDS011;25297;44.758;11.310;2023-11-19T10:26:19;19.00;;;11.07;;
39600;SDS011;25297;44.758;11.310;2023-11-19T10:28:45;12.38;;;6.30;;
39600;SDS011;25297;44.758;11.310;2023-11-19T10:31:15;12.15;;;8.95;;
39600;SDS011;25297;44.758;11.310;2023-11-19T10:33:42;8.52;;;6.35;;
39600;SDS011;25297;44.758;11.310;2023-11-19T10:36:10;8.88;;;7.40;;
39600;SDS011;25297;44.758;11.310;2023-11-19T10:38:37;9.90;;;8.27;;
39600;SDS011;25297;44.758;11.310;2023-11-19T10:41:03;10.82;;;7.05;;
39600;SDS011;25297;44.758;11.310;2023-11-19T10:43:30;10.95;;;6.10;;
39600;SDS011;25297;44.758;11.310;2023-11-19T10:46:17;10.05;;;5.93;;
39600;SDS011;25297;44.758;11.310;2023-11-19T10:48:46;9.75;;;6.47;;
39600;SDS011;25297;44.758;11.310;2023-11-19T10:51:11;9.80;;;5.70;;
39600;SDS011;25297;44.758;11.310;2023-11-19T10:53:46;12.60;;;6.38;;
39600;SDS011;25297;44.758;11.310;2023-11-19T10:56:13;7.47;;;5.63;;
39600;SDS011;25297;44.758;11.310;2023-11-19T11:01:13;9.10;;;6.10;;
39600;SDS011;25297;44.758;11.310;2023-11-19T11:03:48;7.90;;;5.70;;
39600;SDS011;25297;44.758;11.310;2023-11-19T11:06:18;8.40;;;5.80;;
39600;SDS011;25297;44.758;11.310;2023-11-19T11:08:44;9.68;;;5.68;;
39600;SDS011;25297;44.758;11.310;2023-11-19T11:11:13;10.40;;;6.68;;
39600;SDS011;25297;44.758;11.310;2023-11-19T11:13:42;8.23;;;5.57;;
39600;SDS011;25297;44.758;11.310;2023-11-19T11:16:09;7.90;;;5.88;;
39600;SDS011;25297;44.758;11.310;2023-11-19T11:18:36;7.95;;;5.38;;
39600;SDS011;25297;44.758;11.310;2023-11-19T11:21:11;17.20;;;7.85;;
39600;SDS011;25297;44.758;11.310;2023-11-19T11:32:16;12.20;;;5.40;;
39600;SDS011;25297;44.758;11.310;2023-11-19T11:37:50;9.60;;;5.10;;
39600;SDS011;25297;44.758;11.310;2023-11-19T11:40:24;8.52;;;5.15;;
39600;SDS011;25297;44.758;11.310;2023-11-19T11:42:51;6.97;;;5.25;;
39600;SDS011;25297;44.758;11.310;2023-11-19T11:45:18;7.35;;;5.68;;
39600;SDS011;25297;44.758;11.310;2023-11-19T11:50:19;7.63;;;5.30;;
39600;SDS011;25297;44.758;11.310;2023-11-19T11:56:06;9.77;;;5.50;;
39600;SDS011;25297;44.758;11.310;2023-11-19T12:00:44;7.03;;;4.85;;
39600;SDS011;25297;44.758;11.310;2023-11-19T12:03:12;6.82;;;5.05;;
39600;SDS011;25297;44.758;11.310;2023-11-19T12:05:38;7.22;;;5.32;;
39600;SDS011;25297;44.758;11.310;2023-11-19T12:08:07;9.57;;;5.70;;
39600;SDS011;25297;44.758;11.310;2023-11-19T12:10:48;7.70;;;4.97;;
39600;SDS011;25297;44.758;11.310;2023-11-19T12:13:15;8.13;;;5.60;;
39600;SDS011;25297;44.758;11.310;2023-11-19T12:18:30;9.13;;;5.70;;
39600;SDS011;25297;44.758;11.310;2023-11-19T12:20:57;7.50;;;5.68;;
39600;SDS011;25297;44.758;11.310;2023-11-19T12:23:30;9.30;;;6.05;;
39600;SDS011;25297;44.758;11.310;2023-11-19T12:25:57;6.88;;;5.15;;
39600;SDS011;25297;44.758;11.310;2023-11-19T12:28:23;7.55;;;5.35;;
39600;SDS011;25297;44.758;11.310;2023-11-19T12:30:51;8.48;;;5.57;;
39600;SDS011;25297;44.758;11.310;2023-11-19T12:33:18;10.32;;;5.40;;
39600;SDS011;25297;44.758;11.310;2023-11-19T12:35:45;6.72;;;5.40;;
39600;SDS011;25297;44.758;11.310;2023-11-19T12:38:22;9.07;;;4.95;;
39600;SDS011;25297;44.758;11.310;2023-11-19T12:41:07;6.50;;;5.25;;
39600;SDS011;25297;44.758;11.310;2023-11-19T12:43:38;7.72;;;5.82;;
39600;SDS011;25297;44.758;11.310;2023-11-19T12:46:25;9.88;;;6.05;;
39600;SDS011;25297;44.758;11.310;2023-11-19T12:48:52;9.98;;;6.25;;
39600;SDS011;25297;44.758;11.310;2023-11-19T12:51:18;8.40;;;5.50;;
39600;SDS011;25297;44.758;11.310;2023-11-19T12:53:48;9.48;;;5.88;;
39600;SDS011;25297;44.758;11.310;2023-11-19T12:56:20;7.03;;;5.70;;
39600;SDS011;25297;44.758;11.310;2023-11-19T12:58:47;8.63;;;6.00;;
39600;SDS011;25297;44.758;11.310;2023-11-19T13:01:17;8.63;;;5.63;;
39600;SDS011;25297;44.758;11.310;2023-11-19T13:03:44;10.35;;;5.78;;
39600;SDS011;25297;44.758;11.310;2023-11-19T13:06:13;7.07;;;5.70;;
39600;SDS011;25297;44.758;11.310;2023-11-19T13:08:41;8.90;;;6.00;;
39600;SDS011;25297;44.758;11.310;2023-11-19T13:11:11;7.10;;;5.70;;
39600;SDS011;25297;44.758;11.310;2023-11-19T13:13:57;7.15;;;5.35;;
39600;SDS011;25297;44.758;11.310;2023-11-19T13:16:25;8.10;;;5.70;;
39600;SDS011;25297;44.758;11.310;2023-11-19T13:18:52;9.82;;;5.93;;
39600;SDS011;25297;44.758;11.310;2023-11-19T13:21:17;8.90;;;5.38;;
39600;SDS011;25297;44.758;11.310;2023-11-19T13:23:43;8.75;;;6.40;;
39600;SDS011;25297;44.758;11.310;2023-11-19T13:26:09;8.77;;;5.75;;
39600;SDS011;25297;44.758;11.310;2023-11-19T13:28:36;8.32;;;6.25;;
39600;SDS011;25297;44.758;11.310;2023-11-19T13:31:02;12.00;;;6.00;;
39600;SDS011;25297;44.758;11.310;2023-11-19T13:33:28;10.13;;;7.18;;
39600;SDS011;25297;44.758;11.310;2023-11-19T13:35:57;8.98;;;6.43;;
39600;SDS011;25297;44.758;11.310;2023-11-19T13:38:22;11.13;;;7.47;;
39600;SDS011;25297;44.758;11.310;2023-11-19T13:40:49;11.15;;;6.72;;
39600;SDS011;25297;44.758;11.310;2023-11-19T13:43:16;10.40;;;7.55;;
39600;SDS011;25297;44.758;11.310;2023-11-19T13:45:41;10.50;;;6.32;;
39600;SDS011;25297;44.758;11.310;2023-11-19T13:48:07;10.40;;;7.63;;
39600;SDS011;25297;44.758;11.310;2023-11-19T13:50:34;14.63;;;9.32;;
39600;SDS011;25297;44.758;11.310;2023-11-19T13:52:59;14.40;;;8.50;;
39600;SDS011;25297;44.758;11.310;2023-11-19T13:55:25;10.52;;;7.57;;
39600;SDS011;25297;44.758;11.310;2023-11-19T13:57:50;7.40;;;6.28;;
39600;SDS011;25297;44.758;11.310;2023-11-19T14:00:16;11.13;;;6.10;;
39600;SDS011;25297;44.758;11.310;2023-11-19T14:02:43;10.00;;;5.85;;
39600;SDS011;25297;44.758;11.310;2023-11-19T14:05:12;9.18;;;6.50;;
39600;SDS011;25297;44.758;11.310;2023-11-19T14:07:40;10.45;;;6.53;;
39600;SDS011;25297;44.758;11.310;2023-11-19T14:10:07;12.70;;;6.38;;
39600;SDS011;25297;44.758;11.310;2023-11-19T14:12:36;10.80;;;6.30;;
39600;SDS011;25297;44.758;11.310;2023-11-19T14:15:02;10.25;;;6.50;;
39600;SDS011;25297;44.758;11.310;2023-11-19T14:17:31;8.05;;;5.25;;
39600;SDS011;25297;44.758;11.310;2023-11-19T14:19:56;12.32;;;5.70;;
39600;SDS011;25297;44.758;11.310;2023-11-19T14:22:22;7.90;;;5.70;;
39600;SDS011;25297;44.758;11.310;2023-11-19T14:24:48;10.43;;;5.95;;
39600;SDS011;25297;44.758;11.310;2023-11-19T14:27:13;7.47;;;5.53;;
39600;SDS011;25297;44.758;11.310;2023-11-19T14:29:39;14.77;;;5.50;;
39600;SDS011;25297;44.758;11.310;2023-11-19T14:32:05;12.38;;;6.28;;
39600;SDS011;25297;44.758;11.310;2023-11-19T14:34:31;10.18;;;6.47;;
39600;SDS011;25297;44.758;11.310;2023-11-19T14:36:57;9.25;;;6.05;;
39600;SDS011;25297;44.758;11.310;2023-11-19T14:39:23;9.82;;;6.10;;
39600;SDS011;25297;44.758;11.310;2023-11-19T14:41:49;9.48;;;7.03;;
39600;SDS011;25297;44.758;11.310;2023-11-19T14:44:15;8.80;;;6.05;;
39600;SDS011;25297;44.758;11.310;2023-11-19T14:46:41;10.23;;;5.85;;
39600;SDS011;25297;44.758;11.310;2023-11-19T14:49:07;8.60;;;5.65;;
39600;SDS011;25297;44.758;11.310;2023-11-19T14:51:39;9.75;;;6.40;;